PWSweather.com
Personal Weather Stations
Station Observations
DW6359
Southwest Cambria, Cambria, WI 53923

Southwest CambriaCambria, WI 53923

Lat: 43.541194, Lon: -89.11275

Elevation: 945

Station Type: Davis Vantage Pro2

http://home.centurytel.net/weathercambria/wxcambria.html

High Low Average
Temperature 17.0°F-8.3°C 4.1°F-15.5°C 13.3°F-10.4°C
Dew Point 12.1°F-11.1°C -2.9°F-19.4°C 5.2°F-14.9°C
Winds 19.0 mph 30.6 kmh 3.0 mph 4.8 kmh 8.0 mph W12.9 kmh W
Wind Gusts 20.0 mph32.2 kmh -- 3.0 mph4.8 kmh
Humidity 85% 51% 70%
Pressure 30.63 in1037.3 mb 30.03 in1016.9 mb -
Precipitation 0.00 in0.0 mm - -
Hour Temp Dew Point Humidity Winds Wind Gusts Pressure Precip Precip Rate Daily Precip Total
12:00 AM 16.6°F-8.6°C 12.6°F-10.8°C 84% 10.0 mph WNW16.1 kmh WNW -- 30.01 in1016.3 mb 0.00 in0.0 mm 0.00 in0.0 mm 0.12 in3.0 mm
12:05 AM 16.5°F-8.6°C 12.5°F-10.8°C 84% 8.0 mph WNW12.9 kmh WNW -- 30.02 in1016.6 mb 0.00 in0.0 mm 0.00 in0.0 mm 0.12 in3.0 mm
12:10 AM 16.4°F-8.7°C 12.4°F-10.9°C 84% 12.0 mph WNW19.3 kmh WNW -- 30.01 in1016.3 mb 0.00 in0.0 mm 0.00 in0.0 mm 0.12 in3.0 mm
12:15 AM 16.5°F-8.6°C 12.5°F-10.8°C 84% 7.0 mph NW11.3 kmh NW -- 30.02 in1016.6 mb 0.00 in0.0 mm 0.00 in0.0 mm 0.12 in3.0 mm
12:20 AM 16.5°F-8.6°C 12.5°F-10.8°C 84% 9.0 mph NW14.5 kmh NW -- 30.01 in1016.3 mb 0.00 in0.0 mm 0.00 in0.0 mm 0.12 in3.0 mm
12:25 AM 16.7°F-8.5°C 12.7°F-10.7°C 84% 12.0 mph WNW19.3 kmh WNW -- 30.02 in1016.6 mb 0.00 in0.0 mm 0.00 in0.0 mm 0.12 in3.0 mm
12:30 AM 16.7°F-8.5°C 12.5°F-10.8°C 83% 13.0 mph NW20.9 kmh NW -- 30.02 in1016.6 mb 0.00 in0.0 mm 0.00 in0.0 mm 0.12 in3.0 mm
12:35 AM 16.7°F-8.5°C 12.5°F-10.8°C 83% 16.0 mph NW25.7 kmh NW -- 30.02 in1016.6 mb 0.00 in0.0 mm 0.00 in0.0 mm 0.12 in3.0 mm
12:40 AM 16.8°F-8.4°C 12.5°F-10.8°C 83% 10.0 mph NNW16.1 kmh NNW 19.0 mph30.6 kmh 30.02 in1016.6 mb 0.00 in0.0 mm 0.00 in0.0 mm 0.12 in3.0 mm
12:45 AM 16.6°F-8.6°C 12.1°F-11.1°C 82% 10.0 mph NW16.1 kmh NW 19.0 mph30.6 kmh 30.03 in1016.9 mb 0.00 in0.0 mm 0.00 in0.0 mm 0.12 in3.0 mm
12:50 AM 16.7°F-8.5°C 12.2°F-11.0°C 82% 12.0 mph WNW19.3 kmh WNW -- 30.03 in1016.9 mb 0.00 in0.0 mm 0.00 in0.0 mm 0.12 in3.0 mm
12:55 AM 16.6°F-8.6°C 12.1°F-11.1°C 82% 10.0 mph WNW16.1 kmh WNW -- 30.03 in1016.9 mb 0.00 in0.0 mm 0.00 in0.0 mm 0.12 in3.0 mm
01:00 AM 16.5°F-8.6°C 12.0°F-11.1°C 82% 15.0 mph WNW24.1 kmh WNW -- 30.03 in1016.9 mb 0.00 in0.0 mm 0.00 in0.0 mm 0.00 in0.0 mm
01:05 AM 16.4°F-8.7°C 11.9°F-11.2°C 82% 6.0 mph NW9.7 kmh NW -- 30.03 in1016.9 mb 0.00 in0.0 mm 0.00 in0.0 mm 0.00 in0.0 mm
01:10 AM 16.4°F-8.7°C 11.9°F-11.2°C 82% 14.0 mph NW22.5 kmh NW -- 30.05 in1017.6 mb 0.00 in0.0 mm 0.00 in0.0 mm 0.00 in0.0 mm
01:15 AM 16.4°F-8.7°C 11.9°F-11.2°C 82% 5.0 mph WNW8.0 kmh WNW -- 30.05 in1017.6 mb 0.00 in0.0 mm 0.00 in0.0 mm 0.00 in0.0 mm
01:20 AM 16.3°F-8.7°C 11.8°F-11.2°C 82% 9.0 mph NW14.5 kmh NW -- 30.04 in1017.3 mb 0.00 in0.0 mm 0.00 in0.0 mm 0.00 in0.0 mm
01:25 AM 16.2°F-8.8°C 11.7°F-11.3°C 82% 7.0 mph WNW11.3 kmh WNW -- 30.04 in1017.3 mb 0.00 in0.0 mm 0.00 in0.0 mm 0.00 in0.0 mm
01:30 AM 16.3°F-8.7°C 12.1°F-11.1°C 83% 9.0 mph NW14.5 kmh NW 19.0 mph30.6 kmh 30.04 in1017.3 mb 0.00 in0.0 mm 0.00 in0.0 mm 0.00 in0.0 mm
01:35 AM 16.2°F-8.8°C 11.7°F-11.3°C 82% 8.0 mph NW12.9 kmh NW 19.0 mph30.6 kmh 30.05 in1017.6 mb 0.00 in0.0 mm 0.00 in0.0 mm 0.00 in0.0 mm
01:40 AM 16.2°F-8.8°C 11.7°F-11.3°C 82% 11.0 mph NW17.7 kmh NW -- 30.05 in1017.6 mb 0.00 in0.0 mm 0.00 in0.0 mm 0.00 in0.0 mm
01:45 AM 16.2°F-8.8°C 11.7°F-11.3°C 82% 12.0 mph NW19.3 kmh NW -- 30.05 in1017.6 mb 0.00 in0.0 mm 0.00 in0.0 mm 0.00 in0.0 mm
01:50 AM 16.2°F-8.8°C 11.7°F-11.3°C 82% 6.0 mph NW9.7 kmh NW -- 30.06 in1017.9 mb 0.00 in0.0 mm 0.00 in0.0 mm 0.00 in0.0 mm
01:55 AM 16.2°F-8.8°C 12.0°F-11.1°C 83% 8.0 mph NNW12.9 kmh NNW -- 30.06 in1017.9 mb 0.00 in0.0 mm 0.00 in0.0 mm 0.00 in0.0 mm
02:00 AM 16.3°F-8.7°C 12.1°F-11.1°C 83% 6.0 mph W9.7 kmh W -- 30.06 in1017.9 mb 0.00 in0.0 mm 0.00 in0.0 mm 0.00 in0.0 mm
02:05 AM 16.3°F-8.7°C 12.1°F-11.1°C 83% 12.0 mph NW19.3 kmh NW -- 30.07 in1018.3 mb 0.00 in0.0 mm 0.00 in0.0 mm 0.00 in0.0 mm
02:10 AM 16.2°F-8.8°C 11.7°F-11.3°C 82% 8.0 mph NW12.9 kmh NW -- 30.08 in1018.6 mb 0.00 in0.0 mm 0.00 in0.0 mm 0.00 in0.0 mm
02:15 AM 16.0°F-8.9°C 11.5°F-11.4°C 82% 4.0 mph NW6.4 kmh NW -- 30.08 in1018.6 mb 0.00 in0.0 mm 0.00 in0.0 mm 0.00 in0.0 mm
02:20 AM 15.8°F-9.0°C 11.3°F-11.5°C 82% 6.0 mph NW9.7 kmh NW 18.0 mph29.0 kmh 30.08 in1018.6 mb 0.00 in0.0 mm 0.00 in0.0 mm 0.00 in0.0 mm
02:25 AM 15.7°F-9.1°C 11.2°F-11.6°C 82% 16.0 mph NW25.7 kmh NW 18.0 mph29.0 kmh 30.08 in1018.6 mb 0.00 in0.0 mm 0.00 in0.0 mm 0.00 in0.0 mm
02:30 AM 15.6°F-9.1°C 11.1°F-11.6°C 82% 7.0 mph NW11.3 kmh NW -- 30.09 in1019.0 mb 0.00 in0.0 mm 0.00 in0.0 mm 0.00 in0.0 mm
02:35 AM 15.5°F-9.2°C 11.0°F-11.7°C 82% 12.0 mph WNW19.3 kmh WNW -- 30.09 in1019.0 mb 0.00 in0.0 mm 0.00 in0.0 mm 0.00 in0.0 mm
02:40 AM 15.4°F-9.2°C 11.2°F-11.6°C 83% 9.0 mph NW14.5 kmh NW -- 30.10 in1019.3 mb 0.00 in0.0 mm 0.00 in0.0 mm 0.00 in0.0 mm
02:45 AM 15.0°F-9.4°C 10.5°F-11.9°C 82% 10.0 mph NW16.1 kmh NW -- 30.10 in1019.3 mb 0.00 in0.0 mm 0.00 in0.0 mm 0.00 in0.0 mm
02:50 AM 14.7°F-9.6°C 10.2°F-12.1°C 82% 8.0 mph W12.9 kmh W -- 30.11 in1019.6 mb 0.00 in0.0 mm 0.00 in0.0 mm 0.00 in0.0 mm
02:55 AM 14.6°F-9.7°C 10.4°F-12.0°C 83% 11.0 mph WNW17.7 kmh WNW -- 30.11 in1019.6 mb 0.00 in0.0 mm 0.00 in0.0 mm 0.00 in0.0 mm
03:00 AM 14.4°F-9.8°C 9.9°F-12.3°C 82% 7.0 mph NW11.3 kmh NW -- 30.11 in1019.6 mb 0.00 in0.0 mm 0.00 in0.0 mm 0.00 in0.0 mm
03:05 AM 14.2°F-9.9°C 10.0°F-12.2°C 83% 11.0 mph NW17.7 kmh NW -- 30.11 in1019.6 mb 0.00 in0.0 mm 0.00 in0.0 mm 0.00 in0.0 mm
03:10 AM 14.0°F-10.0°C 9.8°F-12.3°C 83% 5.0 mph WNW8.0 kmh WNW 16.0 mph25.7 kmh 30.13 in1020.3 mb 0.00 in0.0 mm 0.00 in0.0 mm 0.00 in0.0 mm
03:15 AM 13.9°F-10.1°C 9.7°F-12.4°C 83% 9.0 mph W14.5 kmh W 16.0 mph25.7 kmh 30.13 in1020.3 mb 0.00 in0.0 mm 0.00 in0.0 mm 0.00 in0.0 mm
03:20 AM 13.9°F-10.1°C 9.7°F-12.4°C 83% 5.0 mph WNW8.0 kmh WNW -- 30.13 in1020.3 mb 0.00 in0.0 mm 0.00 in0.0 mm 0.00 in0.0 mm
03:25 AM 13.9°F-10.1°C 9.7°F-12.4°C 83% 5.0 mph NW8.0 kmh NW -- 30.14 in1020.7 mb 0.00 in0.0 mm 0.00 in0.0 mm 0.00 in0.0 mm
03:30 AM 13.9°F-10.1°C 9.7°F-12.4°C 83% 4.0 mph NW6.4 kmh NW -- 30.14 in1020.7 mb 0.00 in0.0 mm 0.00 in0.0 mm 0.00 in0.0 mm
03:35 AM 14.0°F-10.0°C 9.8°F-12.3°C 83% 6.0 mph NW9.7 kmh NW -- 30.14 in1020.7 mb 0.00 in0.0 mm 0.00 in0.0 mm 0.00 in0.0 mm
03:40 AM 14.0°F-10.0°C 9.8°F-12.3°C 83% 5.0 mph NW8.0 kmh NW -- 30.14 in1020.7 mb 0.00 in0.0 mm 0.00 in0.0 mm 0.00 in0.0 mm
03:45 AM 14.1°F-9.9°C 9.9°F-12.3°C 83% 4.0 mph NW6.4 kmh NW -- 30.15 in1021.0 mb 0.00 in0.0 mm 0.00 in0.0 mm 0.00 in0.0 mm
03:50 AM 14.1°F-9.9°C 9.9°F-12.3°C 83% 7.0 mph NW11.3 kmh NW -- 30.15 in1021.0 mb 0.00 in0.0 mm 0.00 in0.0 mm 0.00 in0.0 mm
03:55 AM 14.3°F-9.8°C 9.8°F-12.3°C 82% 6.0 mph NNW9.7 kmh NNW -- 30.15 in1021.0 mb 0.00 in0.0 mm 0.00 in0.0 mm 0.00 in0.0 mm
04:00 AM 14.4°F-9.8°C 9.7°F-12.4°C 81% 7.0 mph NW11.3 kmh NW 17.0 mph27.4 kmh 30.16 in1021.3 mb 0.00 in0.0 mm 0.00 in0.0 mm 0.00 in0.0 mm
04:05 AM 14.3°F-9.8°C 9.6°F-12.4°C 81% 7.0 mph NW11.3 kmh NW 17.0 mph27.4 kmh 30.16 in1021.3 mb 0.00 in0.0 mm 0.00 in0.0 mm 0.00 in0.0 mm
04:10 AM 13.3°F-10.4°C 9.1°F-12.7°C 83% 7.0 mph NW11.3 kmh NW -- 30.16 in1021.3 mb 0.00 in0.0 mm 0.00 in0.0 mm 0.00 in0.0 mm
04:15 AM 13.2°F-10.4°C 9.3°F-12.6°C 84% 11.0 mph NNW17.7 kmh NNW -- 30.17 in1021.7 mb 0.00 in0.0 mm 0.00 in0.0 mm 0.00 in0.0 mm
04:20 AM 13.1°F-10.5°C 9.2°F-12.7°C 84% 19.0 mph NW30.6 kmh NW -- 30.17 in1021.7 mb 0.00 in0.0 mm 0.00 in0.0 mm 0.00 in0.0 mm
04:25 AM 13.0°F-10.6°C 9.4°F-12.6°C 85% 9.0 mph WNW14.5 kmh WNW -- 30.16 in1021.3 mb 0.00 in0.0 mm 0.00 in0.0 mm 0.00 in0.0 mm
04:30 AM 12.9°F-10.6°C 9.3°F-12.6°C 85% 14.0 mph WNW22.5 kmh WNW -- 30.17 in1021.7 mb 0.00 in0.0 mm 0.00 in0.0 mm 0.00 in0.0 mm
04:35 AM 13.0°F-10.6°C 9.4°F-12.6°C 85% 11.0 mph NW17.7 kmh NW -- 30.17 in1021.7 mb 0.00 in0.0 mm 0.00 in0.0 mm 0.00 in0.0 mm
04:40 AM 14.1°F-9.9°C 9.6°F-12.4°C 82% 7.0 mph NW11.3 kmh NW -- 30.17 in1021.7 mb 0.00 in0.0 mm 0.00 in0.0 mm 0.00 in0.0 mm
04:45 AM 14.2°F-9.9°C 9.7°F-12.4°C 82% 5.0 mph NW8.0 kmh NW -- 30.17 in1021.7 mb 0.00 in0.0 mm 0.00 in0.0 mm 0.00 in0.0 mm
04:50 AM 14.3°F-9.8°C 9.6°F-12.4°C 81% 12.0 mph NW19.3 kmh NW 18.0 mph29.0 kmh 30.16 in1021.3 mb 0.00 in0.0 mm 0.00 in0.0 mm 0.00 in0.0 mm
04:55 AM 14.4°F-9.8°C 9.7°F-12.4°C 81% 6.0 mph NW9.7 kmh NW 18.0 mph29.0 kmh 30.17 in1021.7 mb 0.00 in0.0 mm 0.00 in0.0 mm 0.00 in0.0 mm
05:00 AM 14.4°F-9.8°C 9.4°F-12.6°C 80% 9.0 mph NNW14.5 kmh NNW -- 30.17 in1021.7 mb 0.00 in0.0 mm 0.00 in0.0 mm 0.00 in0.0 mm
05:05 AM 14.5°F-9.7°C 9.5°F-12.5°C 80% 11.0 mph NW17.7 kmh NW -- 30.18 in1022.0 mb 0.00 in0.0 mm 0.00 in0.0 mm 0.00 in0.0 mm
05:10 AM 14.5°F-9.7°C 9.5°F-12.5°C 80% 7.0 mph NW11.3 kmh NW -- 30.18 in1022.0 mb 0.00 in0.0 mm 0.00 in0.0 mm 0.00 in0.0 mm
05:15 AM 14.6°F-9.7°C 9.6°F-12.4°C 80% 7.0 mph NW11.3 kmh NW -- 30.18 in1022.0 mb 0.00 in0.0 mm 0.00 in0.0 mm 0.00 in0.0 mm
05:20 AM 14.6°F-9.7°C 9.6°F-12.4°C 80% 12.0 mph WNW19.3 kmh WNW -- 30.18 in1022.0 mb 0.00 in0.0 mm 0.00 in0.0 mm 0.00 in0.0 mm
05:25 AM 14.6°F-9.7°C 9.6°F-12.4°C 80% 7.0 mph WNW11.3 kmh WNW -- 30.18 in1022.0 mb 0.00 in0.0 mm 0.00 in0.0 mm 0.00 in0.0 mm
05:30 AM 14.7°F-9.6°C 9.7°F-12.4°C 80% 9.0 mph NW14.5 kmh NW -- 30.19 in1022.4 mb 0.00 in0.0 mm 0.00 in0.0 mm 0.00 in0.0 mm
05:35 AM 14.8°F-9.6°C 9.8°F-12.3°C 80% 5.0 mph WNW8.0 kmh WNW -- 30.19 in1022.4 mb 0.00 in0.0 mm 0.00 in0.0 mm 0.00 in0.0 mm
05:40 AM 14.9°F-9.5°C 9.9°F-12.3°C 80% 7.0 mph NW11.3 kmh NW 15.0 mph24.1 kmh 30.19 in1022.4 mb 0.00 in0.0 mm 0.00 in0.0 mm 0.00 in0.0 mm
05:45 AM 14.9°F-9.5°C 9.9°F-12.3°C 80% 5.0 mph NW8.0 kmh NW 15.0 mph24.1 kmh 30.19 in1022.4 mb 0.00 in0.0 mm 0.00 in0.0 mm 0.00 in0.0 mm
05:50 AM 14.8°F-9.6°C 9.8°F-12.3°C 80% 6.0 mph NNW9.7 kmh NNW -- 30.20 in1022.7 mb 0.00 in0.0 mm 0.00 in0.0 mm 0.00 in0.0 mm
05:55 AM 14.7°F-9.6°C 9.7°F-12.4°C 80% 6.0 mph NW9.7 kmh NW -- 30.20 in1022.7 mb 0.00 in0.0 mm 0.00 in0.0 mm 0.00 in0.0 mm
06:00 AM 14.6°F-9.7°C 9.9°F-12.3°C 81% 9.0 mph N14.5 kmh N -- 30.20 in1022.7 mb 0.00 in0.0 mm 0.00 in0.0 mm 0.00 in0.0 mm
06:05 AM 14.6°F-9.7°C 9.9°F-12.3°C 81% 6.0 mph NNW9.7 kmh NNW -- 30.20 in1022.7 mb 0.00 in0.0 mm 0.00 in0.0 mm 0.00 in0.0 mm
06:10 AM 14.5°F-9.7°C 9.8°F-12.3°C 81% 11.0 mph W17.7 kmh W -- 30.21 in1023.0 mb 0.00 in0.0 mm 0.00 in0.0 mm 0.00 in0.0 mm
06:15 AM 14.5°F-9.7°C 9.8°F-12.3°C 81% 7.0 mph NNW11.3 kmh NNW -- 30.21 in1023.0 mb 0.00 in0.0 mm 0.00 in0.0 mm 0.00 in0.0 mm
06:20 AM 14.4°F-9.8°C 9.7°F-12.4°C 81% 5.0 mph NNW8.0 kmh NNW -- 30.22 in1023.4 mb 0.00 in0.0 mm 0.00 in0.0 mm 0.00 in0.0 mm
06:25 AM 14.5°F-9.7°C 9.8°F-12.3°C 81% 10.0 mph NNW16.1 kmh NNW -- 30.22 in1023.4 mb 0.00 in0.0 mm 0.00 in0.0 mm 0.00 in0.0 mm
06:30 AM 14.4°F-9.8°C 9.7°F-12.4°C 81% 8.0 mph N12.9 kmh N 16.0 mph25.7 kmh 30.23 in1023.7 mb 0.00 in0.0 mm 0.00 in0.0 mm 0.00 in0.0 mm
06:35 AM 14.4°F-9.8°C 9.7°F-12.4°C 81% 4.0 mph NNW6.4 kmh NNW 16.0 mph25.7 kmh 30.23 in1023.7 mb 0.00 in0.0 mm 0.00 in0.0 mm 0.00 in0.0 mm
06:40 AM 14.4°F-9.8°C 9.7°F-12.4°C 81% 10.0 mph NW16.1 kmh NW -- 30.23 in1023.7 mb 0.00 in0.0 mm 0.00 in0.0 mm 0.00 in0.0 mm
06:45 AM 14.4°F-9.8°C 9.7°F-12.4°C 81% 13.0 mph NW20.9 kmh NW -- 30.23 in1023.7 mb 0.00 in0.0 mm 0.00 in0.0 mm 0.00 in0.0 mm
06:50 AM 14.3°F-9.8°C 9.6°F-12.4°C 81% 10.0 mph NW16.1 kmh NW -- 30.24 in1024.0 mb 0.00 in0.0 mm 0.00 in0.0 mm 0.00 in0.0 mm
06:55 AM 14.3°F-9.8°C 9.6°F-12.4°C 81% 7.0 mph NW11.3 kmh NW -- 30.24 in1024.0 mb 0.00 in0.0 mm 0.00 in0.0 mm 0.00 in0.0 mm
07:00 AM 14.1°F-9.9°C 9.4°F-12.6°C 81% 11.0 mph NW17.7 kmh NW -- 30.24 in1024.0 mb 0.00 in0.0 mm 0.00 in0.0 mm 0.00 in0.0 mm
07:05 AM 14.1°F-9.9°C 9.4°F-12.6°C 81% 6.0 mph NNW9.7 kmh NNW -- 30.25 in1024.4 mb 0.00 in0.0 mm 0.00 in0.0 mm 0.00 in0.0 mm
07:10 AM 14.0°F-10.0°C 9.5°F-12.5°C 82% 9.0 mph NW14.5 kmh NW -- 30.25 in1024.4 mb 0.00 in0.0 mm 0.00 in0.0 mm 0.00 in0.0 mm
07:15 AM 13.9°F-10.1°C 9.4°F-12.6°C 82% 10.0 mph NW16.1 kmh NW -- 30.25 in1024.4 mb 0.00 in0.0 mm 0.00 in0.0 mm 0.00 in0.0 mm
07:20 AM 14.0°F-10.0°C 9.5°F-12.5°C 82% 6.0 mph NW9.7 kmh NW 15.0 mph24.1 kmh 30.26 in1024.7 mb 0.00 in0.0 mm 0.00 in0.0 mm 0.00 in0.0 mm
07:25 AM 13.9°F-10.1°C 9.4°F-12.6°C 82% 10.0 mph NW16.1 kmh NW 15.0 mph24.1 kmh 30.26 in1024.7 mb 0.00 in0.0 mm 0.00 in0.0 mm 0.00 in0.0 mm
07:30 AM 13.9°F-10.1°C 9.4°F-12.6°C 82% 8.0 mph NW12.9 kmh NW -- 30.26 in1024.7 mb 0.00 in0.0 mm 0.00 in0.0 mm 0.00 in0.0 mm
07:35 AM 13.9°F-10.1°C 9.4°F-12.6°C 82% 6.0 mph NW9.7 kmh NW -- 30.27 in1025.1 mb 0.00 in0.0 mm 0.00 in0.0 mm 0.00 in0.0 mm
07:40 AM 13.9°F-10.1°C 9.4°F-12.6°C 82% 7.0 mph NNW11.3 kmh NNW -- 30.27 in1025.1 mb 0.00 in0.0 mm 0.00 in0.0 mm 0.00 in0.0 mm
07:45 AM 13.9°F-10.1°C 9.4°F-12.6°C 82% 5.0 mph NNW8.0 kmh NNW -- 30.27 in1025.1 mb 0.00 in0.0 mm 0.00 in0.0 mm 0.00 in0.0 mm
07:50 AM 13.9°F-10.1°C 9.2°F-12.7°C 81% 10.0 mph N16.1 kmh N -- 30.27 in1025.1 mb 0.00 in0.0 mm 0.00 in0.0 mm 0.00 in0.0 mm
07:55 AM 13.9°F-10.1°C 9.2°F-12.7°C 81% 12.0 mph NW19.3 kmh NW -- 30.27 in1025.1 mb 0.00 in0.0 mm 0.00 in0.0 mm 0.00 in0.0 mm
08:00 AM 13.9°F-10.1°C 8.9°F-12.8°C 80% 9.0 mph NNW14.5 kmh NNW -- 30.27 in1025.1 mb 0.00 in0.0 mm 0.00 in0.0 mm 0.00 in0.0 mm
08:05 AM 14.0°F-10.0°C 9.0°F-12.8°C 80% 6.0 mph NW9.7 kmh NW -- 30.28 in1025.4 mb 0.00 in0.0 mm 0.00 in0.0 mm 0.00 in0.0 mm
08:10 AM 13.9°F-10.1°C 8.6°F-13.0°C 79% 7.0 mph NW11.3 kmh NW 17.0 mph27.4 kmh 30.28 in1025.4 mb 0.00 in0.0 mm 0.00 in0.0 mm 0.00 in0.0 mm
08:15 AM 13.7°F-10.2°C 7.9°F-13.4°C 77% 14.0 mph NNW22.5 kmh NNW 17.0 mph27.4 kmh 30.29 in1025.7 mb 0.00 in0.0 mm 0.00 in0.0 mm 0.00 in0.0 mm
08:20 AM 13.6°F-10.2°C 7.8°F-13.4°C 77% 7.0 mph NW11.3 kmh NW -- 30.29 in1025.7 mb 0.00 in0.0 mm 0.00 in0.0 mm 0.00 in0.0 mm
08:25 AM 13.5°F-10.3°C 7.4°F-13.7°C 76% 9.0 mph NW14.5 kmh NW -- 30.29 in1025.7 mb 0.00 in0.0 mm 0.00 in0.0 mm 0.00 in0.0 mm
08:30 AM 13.3°F-10.4°C 7.2°F-13.8°C 76% 7.0 mph N11.3 kmh N -- 30.30 in1026.1 mb 0.00 in0.0 mm 0.00 in0.0 mm 0.00 in0.0 mm
08:35 AM 13.1°F-10.5°C 7.0°F-13.9°C 76% 8.0 mph NW12.9 kmh NW -- 30.30 in1026.1 mb 0.00 in0.0 mm 0.00 in0.0 mm 0.00 in0.0 mm
08:40 AM 13.1°F-10.5°C 7.0°F-13.9°C 76% 7.0 mph NNW11.3 kmh NNW -- 30.30 in1026.1 mb 0.00 in0.0 mm 0.00 in0.0 mm 0.00 in0.0 mm
08:45 AM 13.0°F-10.6°C 6.9°F-13.9°C 76% 9.0 mph NW14.5 kmh NW -- 30.31 in1026.4 mb 0.00 in0.0 mm 0.00 in0.0 mm 0.00 in0.0 mm
08:50 AM 12.8°F-10.7°C 6.7°F-14.1°C 76% 10.0 mph NW16.1 kmh NW -- 30.32 in1026.8 mb 0.00 in0.0 mm 0.00 in0.0 mm 0.00 in0.0 mm
08:55 AM 12.7°F-10.7°C 6.6°F-14.1°C 76% 4.0 mph NW6.4 kmh NW -- 30.32 in1026.8 mb 0.00 in0.0 mm 0.00 in0.0 mm 0.00 in0.0 mm
09:00 AM 12.6°F-10.8°C 6.5°F-14.2°C 76% 7.0 mph W11.3 kmh W 18.0 mph29.0 kmh 30.32 in1026.8 mb 0.00 in0.0 mm 0.00 in0.0 mm 0.00 in0.0 mm
09:05 AM 12.6°F-10.8°C 6.5°F-14.2°C 76% 4.0 mph NNW6.4 kmh NNW 18.0 mph29.0 kmh 30.32 in1026.8 mb 0.00 in0.0 mm 0.00 in0.0 mm 0.00 in0.0 mm
09:10 AM 12.6°F-10.8°C 6.8°F-14.0°C 77% 11.0 mph NW17.7 kmh NW -- 30.33 in1027.1 mb 0.00 in0.0 mm 0.00 in0.0 mm 0.00 in0.0 mm
09:15 AM 12.6°F-10.8°C 6.8°F-14.0°C 77% 11.0 mph N17.7 kmh N -- 30.34 in1027.4 mb 0.00 in0.0 mm 0.00 in0.0 mm 0.00 in0.0 mm
09:20 AM 12.6°F-10.8°C 6.8°F-14.0°C 77% 8.0 mph NNW12.9 kmh NNW -- 30.34 in1027.4 mb 0.00 in0.0 mm 0.00 in0.0 mm 0.00 in0.0 mm
09:25 AM 12.7°F-10.7°C 6.9°F-13.9°C 77% 10.0 mph NW16.1 kmh NW -- 30.35 in1027.8 mb 0.00 in0.0 mm 0.00 in0.0 mm 0.00 in0.0 mm
09:30 AM 12.6°F-10.8°C 6.5°F-14.2°C 76% 7.0 mph NW11.3 kmh NW -- 30.35 in1027.8 mb 0.00 in0.0 mm 0.00 in0.0 mm 0.00 in0.0 mm
09:35 AM 12.6°F-10.8°C 6.8°F-14.0°C 77% 8.0 mph N12.9 kmh N -- 30.35 in1027.8 mb 0.00 in0.0 mm 0.00 in0.0 mm 0.00 in0.0 mm
09:40 AM 12.5°F-10.8°C 6.7°F-14.1°C 77% 8.0 mph NNW12.9 kmh NNW -- 30.36 in1028.1 mb 0.00 in0.0 mm 0.00 in0.0 mm 0.00 in0.0 mm
09:45 AM 12.5°F-10.8°C 6.4°F-14.2°C 76% 13.0 mph NNW20.9 kmh NNW -- 30.36 in1028.1 mb 0.00 in0.0 mm 0.00 in0.0 mm 0.00 in0.0 mm
09:50 AM 12.4°F-10.9°C 6.0°F-14.4°C 75% 13.0 mph NW20.9 kmh NW 19.0 mph30.6 kmh 30.36 in1028.1 mb 0.00 in0.0 mm 0.00 in0.0 mm 0.00 in0.0 mm
09:55 AM 12.5°F-10.8°C 6.1°F-14.4°C 75% 6.0 mph N9.7 kmh N 19.0 mph30.6 kmh 30.36 in1028.1 mb 0.00 in0.0 mm 0.00 in0.0 mm 0.00 in0.0 mm
10:00 AM 12.6°F-10.8°C 6.2°F-14.3°C 75% 10.0 mph NNW16.1 kmh NNW -- 30.36 in1028.1 mb 0.00 in0.0 mm 0.00 in0.0 mm 0.00 in0.0 mm
10:05 AM 12.6°F-10.8°C 6.2°F-14.3°C 75% 7.0 mph NW11.3 kmh NW -- 30.37 in1028.4 mb 0.00 in0.0 mm 0.00 in0.0 mm 0.00 in0.0 mm
10:10 AM 12.7°F-10.7°C 6.3°F-14.3°C 75% 15.0 mph N24.1 kmh N -- 30.36 in1028.1 mb 0.00 in0.0 mm 0.00 in0.0 mm 0.00 in0.0 mm
10:15 AM 12.7°F-10.7°C 6.3°F-14.3°C 75% 9.0 mph NNW14.5 kmh NNW -- 30.37 in1028.4 mb 0.00 in0.0 mm 0.00 in0.0 mm 0.00 in0.0 mm
10:20 AM 12.7°F-10.7°C 6.3°F-14.3°C 75% 10.0 mph NW16.1 kmh NW -- 30.37 in1028.4 mb 0.00 in0.0 mm 0.00 in0.0 mm 0.00 in0.0 mm
10:25 AM 12.9°F-10.6°C 6.5°F-14.2°C 75% 17.0 mph NW27.4 kmh NW -- 30.37 in1028.4 mb 0.00 in0.0 mm 0.00 in0.0 mm 0.00 in0.0 mm
10:30 AM 12.7°F-10.7°C 6.3°F-14.3°C 75% 6.0 mph N9.7 kmh N -- 30.37 in1028.4 mb 0.00 in0.0 mm 0.00 in0.0 mm 0.00 in0.0 mm
10:35 AM 12.9°F-10.6°C 6.5°F-14.2°C 75% 12.0 mph N19.3 kmh N -- 30.37 in1028.4 mb 0.00 in0.0 mm 0.00 in0.0 mm 0.00 in0.0 mm
10:40 AM 12.9°F-10.6°C 6.5°F-14.2°C 75% 11.0 mph NW17.7 kmh NW 15.0 mph24.1 kmh 30.37 in1028.4 mb 0.00 in0.0 mm 0.00 in0.0 mm 0.00 in0.0 mm
10:45 AM 13.0°F-10.6°C 6.3°F-14.3°C 74% 9.0 mph NNW14.5 kmh NNW 15.0 mph24.1 kmh 30.37 in1028.4 mb 0.00 in0.0 mm 0.00 in0.0 mm 0.00 in0.0 mm
10:50 AM 13.1°F-10.5°C 6.4°F-14.2°C 74% 5.0 mph N8.0 kmh N -- 30.37 in1028.4 mb 0.00 in0.0 mm 0.00 in0.0 mm 0.00 in0.0 mm
10:55 AM 13.5°F-10.3°C 7.1°F-13.8°C 75% 16.0 mph N25.7 kmh N -- 30.37 in1028.4 mb 0.00 in0.0 mm 0.00 in0.0 mm 0.00 in0.0 mm
11:00 AM 13.6°F-10.2°C 6.9°F-13.9°C 74% 15.0 mph N24.1 kmh N -- 30.38 in1028.8 mb 0.00 in0.0 mm 0.00 in0.0 mm 0.00 in0.0 mm
11:05 AM 13.2°F-10.4°C 6.2°F-14.3°C 73% 9.0 mph NNW14.5 kmh NNW -- 30.38 in1028.8 mb 0.00 in0.0 mm 0.00 in0.0 mm 0.00 in0.0 mm
11:10 AM 13.4°F-10.3°C 6.4°F-14.2°C 73% 7.0 mph NW11.3 kmh NW -- 30.38 in1028.8 mb 0.00 in0.0 mm 0.00 in0.0 mm 0.00 in0.0 mm
11:15 AM 13.3°F-10.4°C 6.0°F-14.4°C 72% 10.0 mph NE16.1 kmh NE -- 30.38 in1028.8 mb 0.00 in0.0 mm 0.00 in0.0 mm 0.00 in0.0 mm
11:20 AM 13.5°F-10.3°C 5.9°F-14.5°C 71% 9.0 mph N14.5 kmh N -- 30.38 in1028.8 mb 0.00 in0.0 mm 0.00 in0.0 mm 0.00 in0.0 mm
11:25 AM 13.5°F-10.3°C 5.6°F-14.7°C 70% 12.0 mph NW19.3 kmh NW -- 30.38 in1028.8 mb 0.00 in0.0 mm 0.00 in0.0 mm 0.00 in0.0 mm
11:30 AM 13.6°F-10.2°C 5.7°F-14.6°C 70% 12.0 mph NNW19.3 kmh NNW 20.0 mph32.2 kmh 30.38 in1028.8 mb 0.00 in0.0 mm 0.00 in0.0 mm 0.00 in0.0 mm
11:35 AM 14.0°F-10.0°C 6.0°F-14.4°C 70% 9.0 mph N14.5 kmh N 20.0 mph32.2 kmh 30.38 in1028.8 mb 0.00 in0.0 mm 0.00 in0.0 mm 0.00 in0.0 mm
11:40 AM 14.1°F-9.9°C 5.8°F-14.6°C 69% 10.0 mph N16.1 kmh N -- 30.37 in1028.4 mb 0.00 in0.0 mm 0.00 in0.0 mm 0.00 in0.0 mm
11:45 AM 14.4°F-9.8°C 6.1°F-14.4°C 69% 5.0 mph NNW8.0 kmh NNW -- 30.37 in1028.4 mb 0.00 in0.0 mm 0.00 in0.0 mm 0.00 in0.0 mm
11:50 AM 14.9°F-9.5°C 6.6°F-14.1°C 69% 10.0 mph NNE16.1 kmh NNE -- 30.37 in1028.4 mb 0.00 in0.0 mm 0.00 in0.0 mm 0.00 in0.0 mm
11:55 AM 15.0°F-9.4°C 6.7°F-14.1°C 69% 13.0 mph NNW20.9 kmh NNW -- 30.37 in1028.4 mb 0.00 in0.0 mm 0.00 in0.0 mm 0.00 in0.0 mm
12:00 PM 14.8°F-9.6°C 6.2°F-14.3°C 68% 11.0 mph NNW17.7 kmh NNW -- 30.37 in1028.4 mb 0.00 in0.0 mm 0.00 in0.0 mm 0.00 in0.0 mm
12:05 PM 14.8°F-9.6°C 5.9°F-14.5°C 67% 8.0 mph NW12.9 kmh NW -- 30.37 in1028.4 mb 0.00 in0.0 mm 0.00 in0.0 mm 0.00 in0.0 mm
12:10 PM 15.3°F-9.3°C 6.3°F-14.3°C 67% 9.0 mph NE14.5 kmh NE -- 30.37 in1028.4 mb 0.00 in0.0 mm 0.00 in0.0 mm 0.00 in0.0 mm
12:15 PM 15.2°F-9.3°C 5.6°F-14.7°C 65% 12.0 mph N19.3 kmh N -- 30.38 in1028.8 mb 0.00 in0.0 mm 0.00 in0.0 mm 0.00 in0.0 mm
12:20 PM 15.1°F-9.4°C 5.1°F-14.9°C 64% 5.0 mph NE8.0 kmh NE 17.0 mph27.4 kmh 30.38 in1028.8 mb 0.00 in0.0 mm 0.00 in0.0 mm 0.00 in0.0 mm
12:25 PM 15.1°F-9.4°C 4.8°F-15.1°C 63% 7.0 mph N11.3 kmh N 17.0 mph27.4 kmh 30.37 in1028.4 mb 0.00 in0.0 mm 0.00 in0.0 mm 0.00 in0.0 mm
12:30 PM 15.4°F-9.2°C 5.4°F-14.8°C 64% 11.0 mph NW17.7 kmh NW -- 30.38 in1028.8 mb 0.00 in0.0 mm 0.00 in0.0 mm 0.00 in0.0 mm
12:35 PM 15.6°F-9.1°C 5.6°F-14.7°C 64% 15.0 mph NNW24.1 kmh NNW -- 30.37 in1028.4 mb 0.00 in0.0 mm 0.00 in0.0 mm 0.00 in0.0 mm
12:40 PM 15.8°F-9.0°C 5.5°F-14.7°C 63% 10.0 mph N16.1 kmh N -- 30.37 in1028.4 mb 0.00 in0.0 mm 0.00 in0.0 mm 0.00 in0.0 mm
12:45 PM 15.5°F-9.2°C 5.2°F-14.9°C 63% 9.0 mph NE14.5 kmh NE -- 30.37 in1028.4 mb 0.00 in0.0 mm 0.00 in0.0 mm 0.00 in0.0 mm
12:50 PM 15.9°F-8.9°C 5.6°F-14.7°C 63% 8.0 mph N12.9 kmh N -- 30.37 in1028.4 mb 0.00 in0.0 mm 0.00 in0.0 mm 0.00 in0.0 mm
12:55 PM 15.9°F-8.9°C 5.2°F-14.9°C 62% 4.0 mph NW6.4 kmh NW -- 30.37 in1028.4 mb 0.00 in0.0 mm 0.00 in0.0 mm 0.00 in0.0 mm
01:00 PM 16.0°F-8.9°C 5.3°F-14.8°C 62% 11.0 mph NNW17.7 kmh NNW -- 30.37 in1028.4 mb 0.00 in0.0 mm 0.00 in0.0 mm 0.00 in0.0 mm
01:05 PM 16.1°F-8.8°C 5.4°F-14.8°C 62% 9.0 mph N14.5 kmh N -- 30.37 in1028.4 mb 0.00 in0.0 mm 0.00 in0.0 mm 0.00 in0.0 mm
01:10 PM 16.1°F-8.8°C 5.1°F-14.9°C 61% 12.0 mph N19.3 kmh N 14.0 mph22.5 kmh 30.37 in1028.4 mb 0.00 in0.0 mm 0.00 in0.0 mm 0.00 in0.0 mm
01:15 PM 16.1°F-8.8°C 5.1°F-14.9°C 61% 10.0 mph N16.1 kmh N 14.0 mph22.5 kmh 30.37 in1028.4 mb 0.00 in0.0 mm 0.00 in0.0 mm 0.00 in0.0 mm
01:20 PM 16.1°F-8.8°C 4.7°F-15.2°C 60% 6.0 mph NW9.7 kmh NW -- 30.37 in1028.4 mb 0.00 in0.0 mm 0.00 in0.0 mm 0.00 in0.0 mm
01:25 PM 16.4°F-8.7°C 5.7°F-14.6°C 62% 8.0 mph N12.9 kmh N -- 30.36 in1028.1 mb 0.00 in0.0 mm 0.00 in0.0 mm 0.00 in0.0 mm
01:30 PM 16.4°F-8.7°C 5.0°F-15.0°C 60% 12.0 mph N19.3 kmh N -- 30.37 in1028.4 mb 0.00 in0.0 mm 0.00 in0.0 mm 0.00 in0.0 mm
01:35 PM 15.8°F-9.0°C 3.3°F-15.9°C 57% 5.0 mph N8.0 kmh N -- 30.36 in1028.1 mb 0.00 in0.0 mm 0.00 in0.0 mm 0.00 in0.0 mm
01:40 PM 15.8°F-9.0°C 3.3°F-15.9°C 57% 15.0 mph N24.1 kmh N -- 30.36 in1028.1 mb 0.00 in0.0 mm 0.00 in0.0 mm 0.00 in0.0 mm
01:45 PM 15.8°F-9.0°C 3.7°F-15.7°C 58% 6.0 mph NE9.7 kmh NE -- 30.36 in1028.1 mb 0.00 in0.0 mm 0.00 in0.0 mm 0.00 in0.0 mm
01:50 PM 15.9°F-8.9°C 4.1°F-15.5°C 59% 9.0 mph N14.5 kmh N -- 30.37 in1028.4 mb 0.00 in0.0 mm 0.00 in0.0 mm 0.00 in0.0 mm
01:55 PM 16.6°F-8.6°C 5.2°F-14.9°C 60% 7.0 mph NNE11.3 kmh NNE -- 30.36 in1028.1 mb 0.00 in0.0 mm 0.00 in0.0 mm 0.00 in0.0 mm
02:00 PM 16.5°F-8.6°C 4.7°F-15.2°C 59% 9.0 mph NNW14.5 kmh NNW 14.0 mph22.5 kmh 30.37 in1028.4 mb 0.00 in0.0 mm 0.00 in0.0 mm 0.00 in0.0 mm
02:05 PM 16.3°F-8.7°C 3.8°F-15.7°C 57% 15.0 mph NNE24.1 kmh NNE 14.0 mph22.5 kmh 30.37 in1028.4 mb 0.00 in0.0 mm 0.00 in0.0 mm 0.00 in0.0 mm
02:10 PM 16.4°F-8.7°C 4.2°F-15.4°C 58% 5.0 mph NE8.0 kmh NE -- 30.37 in1028.4 mb 0.00 in0.0 mm 0.00 in0.0 mm 0.00 in0.0 mm
02:15 PM 16.6°F-8.6°C 4.1°F-15.5°C 57% 6.0 mph N9.7 kmh N -- 30.37 in1028.4 mb 0.00 in0.0 mm 0.00 in0.0 mm 0.00 in0.0 mm
02:20 PM 16.4°F-8.7°C 3.5°F-15.8°C 56% 5.0 mph N8.0 kmh N -- 30.37 in1028.4 mb 0.00 in0.0 mm 0.00 in0.0 mm 0.00 in0.0 mm
02:25 PM 16.6°F-8.6°C 4.4°F-15.3°C 58% 6.0 mph NW9.7 kmh NW -- 30.38 in1028.8 mb 0.00 in0.0 mm 0.00 in0.0 mm 0.00 in0.0 mm
02:30 PM 16.9°F-8.4°C 4.7°F-15.2°C 58% 6.0 mph NNE9.7 kmh NNE -- 30.38 in1028.8 mb 0.00 in0.0 mm 0.00 in0.0 mm 0.00 in0.0 mm
02:35 PM 16.7°F-8.5°C 4.1°F-15.5°C 57% 5.0 mph N8.0 kmh N -- 30.37 in1028.4 mb 0.00 in0.0 mm 0.00 in0.0 mm 0.00 in0.0 mm
02:40 PM 16.8°F-8.4°C 4.6°F-15.2°C 58% 6.0 mph N9.7 kmh N -- 30.38 in1028.8 mb 0.00 in0.0 mm 0.00 in0.0 mm 0.00 in0.0 mm
02:45 PM 16.6°F-8.6°C 4.1°F-15.5°C 57% 6.0 mph NNW9.7 kmh NNW -- 30.38 in1028.8 mb 0.00 in0.0 mm 0.00 in0.0 mm 0.00 in0.0 mm
02:50 PM 16.6°F-8.6°C 3.7°F-15.7°C 56% 6.0 mph NNW9.7 kmh NNW 16.0 mph25.7 kmh 30.39 in1029.1 mb 0.00 in0.0 mm 0.00 in0.0 mm 0.00 in0.0 mm
02:55 PM 16.6°F-8.6°C 2.5°F-16.4°C 53% 10.0 mph NNE16.1 kmh NNE 16.0 mph25.7 kmh 30.39 in1029.1 mb 0.00 in0.0 mm 0.00 in0.0 mm 0.00 in0.0 mm
03:00 PM 16.4°F-8.7°C 3.1°F-16.1°C 55% 4.0 mph N6.4 kmh N -- 30.39 in1029.1 mb 0.00 in0.0 mm 0.00 in0.0 mm 0.00 in0.0 mm
03:05 PM 16.6°F-8.6°C 3.7°F-15.7°C 56% 5.0 mph NE8.0 kmh NE -- 30.39 in1029.1 mb 0.00 in0.0 mm 0.00 in0.0 mm 0.00 in0.0 mm
03:10 PM 16.6°F-8.6°C 3.3°F-15.9°C 55% 9.0 mph NNE14.5 kmh NNE -- 30.40 in1029.5 mb 0.00 in0.0 mm 0.00 in0.0 mm 0.00 in0.0 mm
03:15 PM 16.5°F-8.6°C 2.4°F-16.4°C 53% 8.0 mph N12.9 kmh N -- 30.39 in1029.1 mb 0.00 in0.0 mm 0.00 in0.0 mm 0.00 in0.0 mm
03:20 PM 16.7°F-8.5°C 2.6°F-16.3°C 53% 13.0 mph NE20.9 kmh NE -- 30.40 in1029.5 mb 0.00 in0.0 mm 0.00 in0.0 mm 0.00 in0.0 mm
03:25 PM 16.4°F-8.7°C 1.9°F-16.7°C 52% 9.0 mph NE14.5 kmh NE -- 30.41 in1029.8 mb 0.00 in0.0 mm 0.00 in0.0 mm 0.00 in0.0 mm
03:30 PM 16.4°F-8.7°C 1.9°F-16.7°C 52% 4.0 mph NNW6.4 kmh NNW -- 30.41 in1029.8 mb 0.00 in0.0 mm 0.00 in0.0 mm 0.00 in0.0 mm
03:35 PM 16.4°F-8.7°C 1.9°F-16.7°C 52% 11.0 mph N17.7 kmh N -- 30.42 in1030.1 mb 0.00 in0.0 mm 0.00 in0.0 mm 0.00 in0.0 mm
03:40 PM 16.4°F-8.7°C 2.3°F-16.5°C 53% 9.0 mph N14.5 kmh N 15.0 mph24.1 kmh 30.42 in1030.1 mb 0.00 in0.0 mm 0.00 in0.0 mm 0.00 in0.0 mm
03:45 PM 16.7°F-8.5°C 2.6°F-16.3°C 53% 7.0 mph N11.3 kmh N 15.0 mph24.1 kmh 30.42 in1030.1 mb 0.00 in0.0 mm 0.00 in0.0 mm 0.00 in0.0 mm
03:50 PM 16.7°F-8.5°C 2.2°F-16.6°C 52% 5.0 mph NE8.0 kmh NE -- 30.43 in1030.5 mb 0.00 in0.0 mm 0.00 in0.0 mm 0.00 in0.0 mm
03:55 PM 16.7°F-8.5°C 2.6°F-16.3°C 53% 7.0 mph NNE11.3 kmh NNE -- 30.43 in1030.5 mb 0.00 in0.0 mm 0.00 in0.0 mm 0.00 in0.0 mm
04:00 PM 17.0°F-8.3°C 2.4°F-16.4°C 52% 12.0 mph N19.3 kmh N -- 30.44 in1030.8 mb 0.00 in0.0 mm 0.00 in0.0 mm 0.00 in0.0 mm
04:05 PM 16.8°F-8.4°C 2.7°F-16.3°C 53% 5.0 mph NNE8.0 kmh NNE -- 30.44 in1030.8 mb 0.00 in0.0 mm 0.00 in0.0 mm 0.00 in0.0 mm
04:10 PM 17.0°F-8.3°C 2.9°F-16.2°C 53% 7.0 mph N11.3 kmh N -- 30.44 in1030.8 mb 0.00 in0.0 mm 0.00 in0.0 mm 0.00 in0.0 mm
04:15 PM 17.0°F-8.3°C 2.4°F-16.4°C 52% 10.0 mph N16.1 kmh N -- 30.45 in1031.2 mb 0.00 in0.0 mm 0.00 in0.0 mm 0.00 in0.0 mm
04:20 PM 16.8°F-8.4°C 2.3°F-16.5°C 52% 5.0 mph N8.0 kmh N -- 30.45 in1031.2 mb 0.00 in0.0 mm 0.00 in0.0 mm 0.00 in0.0 mm
04:25 PM 16.8°F-8.4°C 2.7°F-16.3°C 53% 4.0 mph N6.4 kmh N -- 30.45 in1031.2 mb 0.00 in0.0 mm 0.00 in0.0 mm 0.00 in0.0 mm
04:30 PM 16.8°F-8.4°C 2.7°F-16.3°C 53% 3.0 mph NE4.8 kmh NE 12.0 mph19.3 kmh 30.45 in1031.2 mb 0.00 in0.0 mm 0.00 in0.0 mm 0.00 in0.0 mm
04:35 PM 16.8°F-8.4°C 3.1°F-16.1°C 54% 4.0 mph N6.4 kmh N 12.0 mph19.3 kmh 30.46 in1031.5 mb 0.00 in0.0 mm 0.00 in0.0 mm 0.00 in0.0 mm
04:40 PM 16.8°F-8.4°C 3.1°F-16.1°C 54% 8.0 mph N12.9 kmh N -- 30.46 in1031.5 mb 0.00 in0.0 mm 0.00 in0.0 mm 0.00 in0.0 mm
04:45 PM 16.8°F-8.4°C 3.5°F-15.8°C 55% 7.0 mph N11.3 kmh N -- 30.46 in1031.5 mb 0.00 in0.0 mm 0.00 in0.0 mm 0.00 in0.0 mm
04:50 PM 16.7°F-8.5°C 3.4°F-15.9°C 55% 7.0 mph N11.3 kmh N -- 30.47 in1031.8 mb 0.00 in0.0 mm 0.00 in0.0 mm 0.00 in0.0 mm
04:55 PM 16.9°F-8.4°C 3.6°F-15.8°C 55% 6.0 mph N9.7 kmh N -- 30.48 in1032.2 mb 0.00 in0.0 mm 0.00 in0.0 mm 0.00 in0.0 mm
05:00 PM 16.9°F-8.4°C 3.2°F-16.0°C 54% 11.0 mph NW17.7 kmh NW -- 30.48 in1032.2 mb 0.00 in0.0 mm 0.00 in0.0 mm 0.00 in0.0 mm
05:05 PM 16.6°F-8.6°C 2.1°F-16.6°C 52% 10.0 mph N16.1 kmh N -- 30.48 in1032.2 mb 0.00 in0.0 mm 0.00 in0.0 mm 0.00 in0.0 mm
05:10 PM 16.5°F-8.6°C 2.0°F-16.7°C 52% 10.0 mph N16.1 kmh N -- 30.48 in1032.2 mb 0.00 in0.0 mm 0.00 in0.0 mm 0.00 in0.0 mm
05:15 PM 16.3°F-8.7°C 1.4°F-17.0°C 51% 7.0 mph NNW11.3 kmh NNW -- 30.49 in1032.5 mb 0.00 in0.0 mm 0.00 in0.0 mm 0.00 in0.0 mm
05:20 PM 16.2°F-8.8°C 1.3°F-17.1°C 51% 4.0 mph NNE6.4 kmh NNE 13.0 mph20.9 kmh 30.49 in1032.5 mb 0.00 in0.0 mm 0.00 in0.0 mm 0.00 in0.0 mm
05:25 PM 16.1°F-8.8°C 1.6°F-16.9°C 52% 5.0 mph NNW8.0 kmh NNW 13.0 mph20.9 kmh 30.49 in1032.5 mb 0.00 in0.0 mm 0.00 in0.0 mm 0.00 in0.0 mm
05:30 PM 16.0°F-8.9°C 2.3°F-16.5°C 54% 4.0 mph N6.4 kmh N -- 30.50 in1032.8 mb 0.00 in0.0 mm 0.00 in0.0 mm 0.00 in0.0 mm
05:35 PM 15.8°F-9.0°C 2.5°F-16.4°C 55% 3.0 mph NNW4.8 kmh NNW -- 30.50 in1032.8 mb 0.00 in0.0 mm 0.00 in0.0 mm 0.00 in0.0 mm
05:40 PM 15.7°F-9.1°C 2.8°F-16.2°C 56% 7.0 mph NW11.3 kmh NW -- 30.50 in1032.8 mb 0.00 in0.0 mm 0.00 in0.0 mm 0.00 in0.0 mm
05:45 PM 15.5°F-9.2°C 3.0°F-16.1°C 57% 4.0 mph NW6.4 kmh NW -- 30.50 in1032.8 mb 0.00 in0.0 mm 0.00 in0.0 mm 0.00 in0.0 mm
05:50 PM 15.3°F-9.3°C 2.4°F-16.4°C 56% 6.0 mph NW9.7 kmh NW -- 30.50 in1032.8 mb 0.00 in0.0 mm 0.00 in0.0 mm 0.00 in0.0 mm
05:55 PM 15.2°F-9.3°C 2.4°F-16.4°C 56% 9.0 mph NW14.5 kmh NW -- 30.51 in1033.2 mb 0.00 in0.0 mm 0.00 in0.0 mm 0.00 in0.0 mm
06:00 PM 15.1°F-9.4°C 1.9°F-16.7°C 55% 6.0 mph NNW9.7 kmh NNW -- 30.51 in1033.2 mb 0.00 in0.0 mm 0.00 in0.0 mm 0.00 in0.0 mm
06:05 PM 14.9°F-9.5°C 2.1°F-16.6°C 56% 7.0 mph NW11.3 kmh NW -- 30.51 in1033.2 mb 0.00 in0.0 mm 0.00 in0.0 mm 0.00 in0.0 mm
06:10 PM 14.7°F-9.6°C 1.9°F-16.7°C 56% 11.0 mph NW17.7 kmh NW 14.0 mph22.5 kmh 30.52 in1033.5 mb 0.00 in0.0 mm 0.00 in0.0 mm 0.00 in0.0 mm
06:15 PM 14.6°F-9.7°C 1.4°F-17.0°C 55% 9.0 mph NW14.5 kmh NW 14.0 mph22.5 kmh 30.52 in1033.5 mb 0.00 in0.0 mm 0.00 in0.0 mm 0.00 in0.0 mm
06:20 PM 14.5°F-9.7°C 1.7°F-16.8°C 56% 7.0 mph WNW11.3 kmh WNW -- 30.52 in1033.5 mb 0.00 in0.0 mm 0.00 in0.0 mm 0.00 in0.0 mm
06:25 PM 14.3°F-9.8°C 1.1°F-17.2°C 55% 5.0 mph NNW8.0 kmh NNW -- 30.53 in1033.9 mb 0.00 in0.0 mm 0.00 in0.0 mm 0.00 in0.0 mm
06:30 PM 14.2°F-9.9°C 1.4°F-17.0°C 56% 7.0 mph NW11.3 kmh NW -- 30.53 in1033.9 mb 0.00 in0.0 mm 0.00 in0.0 mm 0.00 in0.0 mm
06:35 PM 14.1°F-9.9°C 1.3°F-17.1°C 56% 7.0 mph NNW11.3 kmh NNW -- 30.54 in1034.2 mb 0.00 in0.0 mm 0.00 in0.0 mm 0.00 in0.0 mm
06:40 PM 13.9°F-10.1°C 1.9°F-16.7°C 58% 4.0 mph NW6.4 kmh NW -- 30.54 in1034.2 mb 0.00 in0.0 mm 0.00 in0.0 mm 0.00 in0.0 mm
06:45 PM 13.6°F-10.2°C 2.0°F-16.7°C 59% 5.0 mph NW8.0 kmh NW -- 30.54 in1034.2 mb 0.00 in0.0 mm 0.00 in0.0 mm 0.00 in0.0 mm
06:50 PM 13.4°F-10.3°C 2.5°F-16.4°C 61% 5.0 mph NW8.0 kmh NW -- 30.54 in1034.2 mb 0.00 in0.0 mm 0.00 in0.0 mm 0.00 in0.0 mm
06:55 PM 13.3°F-10.4°C 2.4°F-16.4°C 61% 6.0 mph N9.7 kmh N -- 30.54 in1034.2 mb 0.00 in0.0 mm 0.00 in0.0 mm 0.00 in0.0 mm
07:00 PM 13.2°F-10.4°C 2.3°F-16.5°C 61% 7.0 mph NW11.3 kmh NW 11.0 mph17.7 kmh 30.55 in1034.5 mb 0.00 in0.0 mm 0.00 in0.0 mm 0.00 in0.0 mm
07:05 PM 13.1°F-10.5°C 2.2°F-16.6°C 61% 7.0 mph NW11.3 kmh NW 11.0 mph17.7 kmh 30.55 in1034.5 mb 0.00 in0.0 mm 0.00 in0.0 mm 0.00 in0.0 mm
07:10 PM 13.0°F-10.6°C 2.1°F-16.6°C 61% 6.0 mph NNW9.7 kmh NNW -- 30.55 in1034.5 mb 0.00 in0.0 mm 0.00 in0.0 mm 0.00 in0.0 mm
07:15 PM 12.9°F-10.6°C 2.0°F-16.7°C 61% 4.0 mph NNW6.4 kmh NNW -- 30.55 in1034.5 mb 0.00 in0.0 mm 0.00 in0.0 mm 0.00 in0.0 mm
07:20 PM 12.8°F-10.7°C 2.3°F-16.5°C 62% 5.0 mph NNW8.0 kmh NNW -- 30.56 in1034.9 mb 0.00 in0.0 mm 0.00 in0.0 mm 0.00 in0.0 mm
07:25 PM 12.7°F-10.7°C 2.2°F-16.6°C 62% 4.0 mph NW6.4 kmh NW -- 30.56 in1034.9 mb 0.00 in0.0 mm 0.00 in0.0 mm 0.00 in0.0 mm
07:30 PM 12.6°F-10.8°C 2.1°F-16.6°C 62% 3.0 mph NW4.8 kmh NW -- 30.56 in1034.9 mb 0.00 in0.0 mm 0.00 in0.0 mm 0.00 in0.0 mm
07:35 PM 12.4°F-10.9°C 2.2°F-16.6°C 63% 6.0 mph NW9.7 kmh NW -- 30.56 in1034.9 mb 0.00 in0.0 mm 0.00 in0.0 mm 0.00 in0.0 mm
07:40 PM 12.3°F-10.9°C 2.1°F-16.6°C 63% 5.0 mph NNW8.0 kmh NNW -- 30.57 in1035.2 mb 0.00 in0.0 mm 0.00 in0.0 mm 0.00 in0.0 mm
07:45 PM 12.2°F-11.0°C 2.4°F-16.4°C 64% 4.0 mph NW6.4 kmh NW -- 30.57 in1035.2 mb 0.00 in0.0 mm 0.00 in0.0 mm 0.00 in0.0 mm
07:50 PM 12.0°F-11.1°C 2.5°F-16.4°C 65% 5.0 mph NW8.0 kmh NW 11.0 mph17.7 kmh 30.57 in1035.2 mb 0.00 in0.0 mm 0.00 in0.0 mm 0.00 in0.0 mm
07:55 PM 12.0°F-11.1°C 2.5°F-16.4°C 65% 3.0 mph NNW4.8 kmh NNW 11.0 mph17.7 kmh 30.57 in1035.2 mb 0.00 in0.0 mm 0.00 in0.0 mm 0.00 in0.0 mm
08:00 PM 11.8°F-11.2°C 2.7°F-16.3°C 66% 8.0 mph NW12.9 kmh NW -- 30.57 in1035.2 mb 0.00 in0.0 mm 0.00 in0.0 mm 0.00 in0.0 mm
08:05 PM 11.7°F-11.3°C 2.6°F-16.3°C 66% 6.0 mph NW9.7 kmh NW -- 30.57 in1035.2 mb 0.00 in0.0 mm 0.00 in0.0 mm 0.00 in0.0 mm
08:10 PM 11.6°F-11.3°C 2.8°F-16.2°C 67% 8.0 mph NNW12.9 kmh NNW -- 30.57 in1035.2 mb 0.00 in0.0 mm 0.00 in0.0 mm 0.00 in0.0 mm
08:15 PM 11.4°F-11.4°C 2.6°F-16.3°C 67% 6.0 mph NW9.7 kmh NW -- 30.57 in1035.2 mb 0.00 in0.0 mm 0.00 in0.0 mm 0.00 in0.0 mm
08:20 PM 11.4°F-11.4°C 2.9°F-16.2°C 68% 5.0 mph NNW8.0 kmh NNW -- 30.58 in1035.6 mb 0.00 in0.0 mm 0.00 in0.0 mm 0.00 in0.0 mm
08:25 PM 11.2°F-11.6°C 2.7°F-16.3°C 68% 6.0 mph NW9.7 kmh NW -- 30.58 in1035.6 mb 0.00 in0.0 mm 0.00 in0.0 mm 0.00 in0.0 mm
08:30 PM 11.0°F-11.7°C 2.9°F-16.2°C 69% 11.0 mph NW17.7 kmh NW -- 30.58 in1035.6 mb 0.00 in0.0 mm 0.00 in0.0 mm 0.00 in0.0 mm
08:35 PM 10.8°F-11.8°C 2.7°F-16.3°C 69% 7.0 mph WNW11.3 kmh WNW -- 30.58 in1035.6 mb 0.00 in0.0 mm 0.00 in0.0 mm 0.00 in0.0 mm
08:40 PM 10.7°F-11.8°C 2.6°F-16.3°C 69% 8.0 mph NNW12.9 kmh NNW 15.0 mph24.1 kmh 30.58 in1035.6 mb 0.00 in0.0 mm 0.00 in0.0 mm 0.00 in0.0 mm
08:45 PM 10.5°F-11.9°C 2.4°F-16.4°C 69% 8.0 mph NW12.9 kmh NW 15.0 mph24.1 kmh 30.58 in1035.6 mb 0.00 in0.0 mm 0.00 in0.0 mm 0.00 in0.0 mm
08:50 PM 10.4°F-12.0°C 2.6°F-16.3°C 70% 6.0 mph NW9.7 kmh NW -- 30.58 in1035.6 mb 0.00 in0.0 mm 0.00 in0.0 mm 0.00 in0.0 mm
08:55 PM 10.3°F-12.1°C 2.5°F-16.4°C 70% 6.0 mph NW9.7 kmh NW -- 30.58 in1035.6 mb 0.00 in0.0 mm 0.00 in0.0 mm 0.00 in0.0 mm
09:00 PM 10.1°F-12.2°C 2.3°F-16.5°C 70% 5.0 mph NW8.0 kmh NW -- 30.58 in1035.6 mb 0.00 in0.0 mm 0.00 in0.0 mm 0.00 in0.0 mm
09:05 PM 10.0°F-12.2°C 2.2°F-16.6°C 70% 8.0 mph NW12.9 kmh NW -- 30.58 in1035.6 mb 0.00 in0.0 mm 0.00 in0.0 mm 0.00 in0.0 mm
09:10 PM 9.9°F-12.3°C 2.1°F-16.6°C 70% 3.0 mph NNW4.8 kmh NNW -- 30.58 in1035.6 mb 0.00 in0.0 mm 0.00 in0.0 mm 0.00 in0.0 mm
09:15 PM 9.8°F-12.3°C 2.3°F-16.5°C 71% 6.0 mph NW9.7 kmh NW -- 30.59 in1035.9 mb 0.00 in0.0 mm 0.00 in0.0 mm 0.00 in0.0 mm
09:20 PM 9.7°F-12.4°C 2.2°F-16.6°C 71% 8.0 mph WNW12.9 kmh WNW -- 30.59 in1035.9 mb 0.00 in0.0 mm 0.00 in0.0 mm 0.00 in0.0 mm
09:25 PM 9.5°F-12.5°C 2.0°F-16.7°C 71% 5.0 mph NW8.0 kmh NW -- 30.59 in1035.9 mb 0.00 in0.0 mm 0.00 in0.0 mm 0.00 in0.0 mm
09:30 PM 9.4°F-12.6°C 1.9°F-16.7°C 71% 7.0 mph NW11.3 kmh NW 13.0 mph20.9 kmh 30.59 in1035.9 mb 0.00 in0.0 mm 0.00 in0.0 mm 0.00 in0.0 mm
09:35 PM 9.2°F-12.7°C 1.7°F-16.8°C 71% 4.0 mph WNW6.4 kmh WNW 13.0 mph20.9 kmh 30.59 in1035.9 mb 0.00 in0.0 mm 0.00 in0.0 mm 0.00 in0.0 mm
09:40 PM 9.1°F-12.7°C 1.9°F-16.7°C 72% 8.0 mph NW12.9 kmh NW -- 30.59 in1035.9 mb 0.00 in0.0 mm 0.00 in0.0 mm 0.00 in0.0 mm
09:45 PM 9.0°F-12.8°C 1.8°F-16.8°C 72% 11.0 mph NW17.7 kmh NW -- 30.59 in1035.9 mb 0.00 in0.0 mm 0.00 in0.0 mm 0.00 in0.0 mm
09:50 PM 8.9°F-12.8°C 1.7°F-16.8°C 72% 11.0 mph NNW17.7 kmh NNW -- 30.59 in1035.9 mb 0.00 in0.0 mm 0.00 in0.0 mm 0.00 in0.0 mm
09:55 PM 8.7°F-12.9°C 1.6°F-16.9°C 72% 5.0 mph NW8.0 kmh NW -- 30.59 in1035.9 mb 0.00 in0.0 mm 0.00 in0.0 mm 0.00 in0.0 mm
10:00 PM 8.6°F-13.0°C 1.5°F-16.9°C 72% 8.0 mph NNW12.9 kmh NNW -- 30.60 in1036.2 mb 0.00 in0.0 mm 0.00 in0.0 mm 0.00 in0.0 mm
10:05 PM 8.4°F-13.1°C 1.3°F-17.1°C 72% 7.0 mph NW11.3 kmh NW -- 30.60 in1036.2 mb 0.00 in0.0 mm 0.00 in0.0 mm 0.00 in0.0 mm
10:10 PM 8.3°F-13.2°C 1.2°F-17.1°C 72% 5.0 mph NW8.0 kmh NW -- 30.59 in1035.9 mb 0.00 in0.0 mm 0.00 in0.0 mm 0.00 in0.0 mm
10:15 PM 8.1°F-13.3°C 1.0°F-17.2°C 72% 11.0 mph NW17.7 kmh NW -- 30.60 in1036.2 mb 0.00 in0.0 mm 0.00 in0.0 mm 0.00 in0.0 mm
10:20 PM 8.0°F-13.3°C 0.9°F-17.3°C 72% 8.0 mph NW12.9 kmh NW 15.0 mph24.1 kmh 30.60 in1036.2 mb 0.00 in0.0 mm 0.00 in0.0 mm 0.00 in0.0 mm
10:25 PM 7.9°F-13.4°C 0.8°F-17.3°C 72% 11.0 mph W17.7 kmh W 15.0 mph24.1 kmh 30.61 in1036.6 mb 0.00 in0.0 mm 0.00 in0.0 mm 0.00 in0.0 mm
10:30 PM 7.7°F-13.5°C 0.6°F-17.4°C 72% 5.0 mph NW8.0 kmh NW -- 30.61 in1036.6 mb 0.00 in0.0 mm 0.00 in0.0 mm 0.00 in0.0 mm
10:35 PM 7.6°F-13.6°C 0.5°F-17.5°C 72% 10.0 mph NNW16.1 kmh NNW -- 30.61 in1036.6 mb 0.00 in0.0 mm 0.00 in0.0 mm 0.00 in0.0 mm
10:40 PM 7.4°F-13.7°C 0.3°F-17.6°C 72% 4.0 mph NW6.4 kmh NW -- 30.61 in1036.6 mb 0.00 in0.0 mm 0.00 in0.0 mm 0.00 in0.0 mm
10:45 PM 7.3°F-13.7°C 0.2°F-17.7°C 72% 10.0 mph WNW16.1 kmh WNW -- 30.61 in1036.6 mb 0.00 in0.0 mm 0.00 in0.0 mm 0.00 in0.0 mm
10:50 PM 7.1°F-13.8°C 0.0°F-17.8°C 72% 6.0 mph NW9.7 kmh NW -- 30.61 in1036.6 mb 0.00 in0.0 mm 0.00 in0.0 mm 0.00 in0.0 mm
10:55 PM 6.9°F-13.9°C -0.2°F-17.9°C 72% 4.0 mph WNW6.4 kmh WNW -- 30.61 in1036.6 mb 0.00 in0.0 mm 0.00 in0.0 mm 0.00 in0.0 mm
11:00 PM 6.8°F-14.0°C -0.3°F-17.9°C 72% 6.0 mph NW9.7 kmh NW -- 30.61 in1036.6 mb 0.00 in0.0 mm 0.00 in0.0 mm 0.00 in0.0 mm
11:05 PM 6.7°F-14.1°C -0.4°F-18.0°C 72% 8.0 mph WNW12.9 kmh WNW -- 30.62 in1036.9 mb 0.00 in0.0 mm 0.00 in0.0 mm 0.00 in0.0 mm
11:10 PM 6.6°F-14.1°C -0.5°F-18.1°C 72% 8.0 mph NNW12.9 kmh NNW 12.0 mph19.3 kmh 30.61 in1036.6 mb 0.00 in0.0 mm 0.00 in0.0 mm 0.00 in0.0 mm
11:15 PM 6.4°F-14.2°C -0.7°F-18.2°C 72% 9.0 mph WNW14.5 kmh WNW 12.0 mph19.3 kmh 30.62 in1036.9 mb 0.00 in0.0 mm 0.00 in0.0 mm 0.00 in0.0 mm
11:20 PM 6.3°F-14.3°C -0.8°F-18.2°C 72% 11.0 mph WNW17.7 kmh WNW -- 30.62 in1036.9 mb 0.00 in0.0 mm 0.00 in0.0 mm 0.00 in0.0 mm
11:25 PM 6.2°F-14.3°C -0.9°F-18.3°C 72% 8.0 mph NNW12.9 kmh NNW -- 30.62 in1036.9 mb 0.00 in0.0 mm 0.00 in0.0 mm 0.00 in0.0 mm
11:30 PM 6.1°F-14.4°C -1.0°F-18.3°C 72% 6.0 mph NW9.7 kmh NW -- 30.62 in1036.9 mb 0.00 in0.0 mm 0.00 in0.0 mm 0.00 in0.0 mm
11:35 PM 5.9°F-14.5°C -0.9°F-18.3°C 73% 8.0 mph NW12.9 kmh NW -- 30.62 in1036.9 mb 0.00 in0.0 mm 0.00 in0.0 mm 0.00 in0.0 mm
11:40 PM 5.8°F-14.6°C -1.0°F-18.3°C 73% 7.0 mph NW11.3 kmh NW -- 30.61 in1036.6 mb 0.00 in0.0 mm 0.00 in0.0 mm 0.00 in0.0 mm
11:45 PM 5.6°F-14.7°C -1.1°F-18.4°C 73% 8.0 mph NW12.9 kmh NW -- 30.62 in1036.9 mb 0.00 in0.0 mm 0.00 in0.0 mm 0.00 in0.0 mm
11:50 PM 5.5°F-14.7°C -1.2°F-18.4°C 73% 9.0 mph NW14.5 kmh NW -- 30.62 in1036.9 mb 0.00 in0.0 mm 0.00 in0.0 mm 0.00 in0.0 mm
11:55 PM 5.4°F-14.8°C -1.3°F-18.5°C 73% 7.0 mph NW11.3 kmh NW -- 30.62 in1036.9 mb 0.00 in0.0 mm 0.00 in0.0 mm 0.00 in0.0 mm